createdAt,value
2024-02-17T00:02:06.634Z,97823.91
2024-02-17T00:04:33.322Z,97828.38
2024-02-17T00:07:00.081Z,97827.94
2024-02-17T00:09:26.786Z,97835.13
2024-02-17T00:11:53.437Z,97847.28
2024-02-17T00:14:20.062Z,97853.75
2024-02-17T00:16:46.672Z,97858.56
2024-02-17T00:19:13.340Z,97859.69
2024-02-17T00:21:39.989Z,97860.94
2024-02-17T00:24:06.612Z,97863.34
2024-02-17T00:26:33.210Z,97865.34
2024-02-17T00:28:59.813Z,97868.09
2024-02-17T00:31:26.421Z,97873.25
2024-02-17T00:33:53.243Z,97869.69
2024-02-17T00:36:19.975Z,97877.63
2024-02-17T00:38:46.645Z,97876.41
2024-02-17T00:41:13.359Z,97874.84
2024-02-17T00:43:40.140Z,97874.44
2024-02-17T00:46:06.887Z,97874.81
2024-02-17T00:48:33.631Z,97879.19
2024-02-17T00:53:28.152Z,97881.16
2024-02-17T00:55:54.758Z,97881.59
2024-02-17T00:58:21.368Z,97884.75
2024-02-17T01:00:48.045Z,97884.75
2024-02-17T01:03:14.766Z,97888.72
2024-02-17T01:05:41.426Z,97891.06
2024-02-17T01:08:08.048Z,97887.13
2024-02-17T01:10:34.677Z,97882.34
2024-02-17T01:13:01.269Z,97885.94
2024-02-17T01:15:27.899Z,97893.06
2024-02-17T01:17:54.659Z,97895.03
2024-02-17T01:20:21.310Z,97894.25
2024-02-17T01:22:47.896Z,97895.84
2024-02-17T01:25:14.561Z,97898.63
2024-02-17T01:27:41.176Z,97904.22
2024-02-17T01:30:07.823Z,97902.63
2024-02-17T01:32:34.466Z,97901.84
2024-02-17T01:35:01.236Z,97901.75
2024-02-17T01:37:27.890Z,97908.84
2024-02-17T01:39:54.568Z,97906.09
2024-02-17T01:42:21.213Z,97908.91
2024-02-17T01:44:47.844Z,97901.38
2024-02-17T01:47:14.576Z,97908.50
2024-02-17T01:49:41.304Z,97912.06
2024-02-17T01:52:07.967Z,97908.91
2024-02-17T01:54:34.691Z,97913.25
2024-02-17T01:57:01.317Z,97907.31
2024-02-17T01:59:27.914Z,97912.50
2024-02-17T02:01:54.587Z,97903.38
2024-02-17T02:04:21.288Z,97892.69
2024-02-17T02:06:47.942Z,97893.50
2024-02-17T02:09:15.012Z,97898.25
2024-02-17T02:11:41.624Z,97900.66
2024-02-17T02:14:08.207Z,97906.13
2024-02-17T02:16:34.858Z,97909.28
2024-02-17T02:19:01.568Z,97916.09
2024-02-17T02:21:28.284Z,97908.53
2024-02-17T02:23:54.924Z,97911.38
2024-02-17T02:26:21.533Z,97916.44
2024-02-17T02:28:48.127Z,97920.44
2024-02-17T02:31:14.721Z,97918.06
2024-02-17T02:33:41.352Z,97914.88
2024-02-17T02:36:08.012Z,97916.03
2024-02-17T02:38:34.637Z,97914.09
2024-02-17T02:41:01.228Z,97912.16
2024-02-17T02:43:27.845Z,97915.72
2024-02-17T02:45:54.564Z,97920.88
2024-02-17T02:48:21.358Z,97928.03
2024-02-17T02:50:48.042Z,97919.69
2024-02-17T02:53:14.670Z,97922.88
2024-02-17T02:55:41.253Z,97927.59
2024-02-17T02:58:07.867Z,97922.06
2024-02-17T03:00:34.570Z,97920.88
2024-02-17T03:03:01.222Z,97927.59
2024-02-17T03:05:27.921Z,97928.00
2024-02-17T03:07:54.556Z,97935.53
2024-02-17T03:10:21.142Z,97928.41
2024-02-17T03:12:47.859Z,97923.25
2024-02-17T03:15:14.566Z,97932.75
2024-02-17T03:17:43.173Z,97931.56
2024-02-17T03:20:09.863Z,97934.75
2024-02-17T03:22:36.519Z,97933.16
2024-02-17T03:25:03.245Z,97945.06
2024-02-17T03:27:29.942Z,97939.53
2024-02-17T03:29:56.569Z,97938.31
2024-02-17T03:32:23.230Z,97941.09
2024-02-17T03:34:49.928Z,97950.63
2024-02-17T03:37:16.579Z,97952.22
2024-02-17T03:39:43.280Z,97957.75
2024-02-17T03:42:09.984Z,97958.53
2024-02-17T03:44:36.658Z,97969.28
2024-02-17T03:47:03.287Z,97969.25
2024-02-17T03:49:29.992Z,97962.53
2024-02-17T03:51:56.705Z,97976.75
2024-02-17T03:54:23.401Z,97979.19
2024-02-17T03:56:50.053Z,97983.53
2024-02-17T03:59:16.663Z,97981.53
2024-02-17T04:01:43.297Z,97982.72
2024-02-17T04:04:10.043Z,97985.41
2024-02-17T04:06:36.813Z,97998.91
2024-02-17T04:09:03.788Z,98003.66
2024-02-17T04:11:30.536Z,97999.66
2024-02-17T04:13:57.180Z,98017.44
2024-02-17T04:16:23.815Z,98015.47
2024-02-17T04:18:50.721Z,98019.69
2024-02-17T04:21:17.469Z,98025.53
2024-02-17T04:23:44.161Z,98029.69
2024-02-17T04:26:10.890Z,98031.66
2024-02-17T04:28:37.513Z,98037.34
2024-02-17T04:31:04.121Z,98042.53
2024-02-17T04:33:30.850Z,98031.44
2024-02-17T04:35:57.510Z,98033.72
2024-02-17T04:38:24.131Z,98036.91
2024-02-17T04:40:50.770Z,98036.81
2024-02-17T04:43:17.375Z,98042.44
2024-02-17T04:45:43.988Z,98039.38
2024-02-17T04:48:10.795Z,98041.78
2024-02-17T04:50:37.447Z,98050.41
2024-02-17T04:53:04.064Z,98049.78
2024-02-17T04:55:30.833Z,98047.72
2024-02-17T04:57:57.534Z,98050.19
2024-02-17T05:00:24.179Z,98049.84
2024-02-17T05:02:50.802Z,98059.78
2024-02-17T05:05:17.472Z,98062.53
2024-02-17T05:07:44.156Z,98057.94
2024-02-17T05:10:10.774Z,98067.00
2024-02-17T05:12:37.452Z,98063.81
2024-02-17T05:15:04.188Z,98066.28
2024-02-17T05:17:30.937Z,98069.00
2024-02-17T05:19:57.714Z,98065.50
2024-02-17T05:22:24.355Z,98072.22
2024-02-17T05:24:50.929Z,98067.88
2024-02-17T05:27:17.580Z,98080.38
2024-02-17T05:29:44.188Z,98078.78
2024-02-17T05:32:10.882Z,98067.03
2024-02-17T05:34:37.960Z,98071.31
2024-02-17T05:37:04.782Z,98071.94
2024-02-17T05:39:31.556Z,98073.13
2024-02-17T05:41:58.194Z,98071.53
2024-02-17T05:44:24.832Z,98066.56
2024-02-17T05:46:51.509Z,98074.53
2024-02-17T05:49:18.199Z,98072.69
2024-02-17T05:51:44.893Z,98082.72
2024-02-17T05:54:11.571Z,98085.97
2024-02-17T05:56:38.190Z,98083.53
2024-02-17T05:59:04.909Z,98089.50
2024-02-17T06:01:31.562Z,98083.69
2024-02-17T06:03:58.285Z,98086.78
2024-02-17T06:06:25.048Z,98089.66
2024-02-17T06:08:51.763Z,98087.28
2024-02-17T06:11:18.470Z,98087.28
2024-02-17T06:13:45.169Z,98096.34
2024-02-17T06:16:11.808Z,98095.31
2024-02-17T06:18:38.508Z,98098.56
2024-02-17T06:21:05.302Z,98095.03
2024-02-17T06:23:31.946Z,98101.50
2024-02-17T06:25:58.560Z,98096.78
2024-02-17T06:28:25.269Z,98098.78
2024-02-17T06:30:52.005Z,98095.28
2024-02-17T06:33:18.746Z,98105.06
2024-02-17T06:35:45.422Z,98102.00
2024-02-17T06:38:12.024Z,98108.72
2024-02-17T06:40:38.609Z,98108.38
2024-02-17T06:43:05.217Z,98107.28
2024-02-17T06:45:31.863Z,98109.25
2024-02-17T06:47:58.549Z,98118.38
2024-02-17T06:50:25.905Z,98114.31
2024-02-17T06:52:52.693Z,98127.53
2024-02-17T06:55:19.328Z,98128.06
2024-02-17T06:57:46.202Z,98136.09
2024-02-17T07:00:12.941Z,98138.47
2024-02-17T07:02:39.610Z,98137.75
2024-02-17T07:05:06.334Z,98144.81
2024-02-17T07:07:33.087Z,98148.16
2024-02-17T07:09:59.696Z,98141.09
2024-02-17T07:12:26.324Z,98151.19
2024-02-17T07:14:52.945Z,98156.50
2024-02-17T07:17:19.530Z,98168.72
2024-02-17T07:19:46.246Z,98166.25
2024-02-17T07:22:12.908Z,98163.19
2024-02-17T07:24:39.563Z,98163.28
2024-02-17T07:27:06.199Z,98165.47
2024-02-17T07:29:32.831Z,98176.16
2024-02-17T07:31:59.466Z,98178.25
2024-02-17T07:34:26.132Z,98177.31
2024-02-17T07:36:53.020Z,98186.38
2024-02-17T07:39:19.754Z,98184.38
2024-02-17T07:41:46.418Z,98185.44
2024-02-17T07:44:13.062Z,98187.75
2024-02-17T07:46:39.682Z,98192.25
2024-02-17T07:49:06.370Z,98191.88
2024-02-17T07:51:33.169Z,98199.38
2024-02-17T07:54:00.820Z,98201.31
2024-02-17T07:56:30.059Z,98201.84
2024-02-17T07:58:56.673Z,98200.69
2024-02-17T08:01:23.336Z,98204.66
2024-02-17T08:03:50.001Z,98207.00
2024-02-17T08:06:16.734Z,98206.22
2024-02-17T08:08:43.402Z,98210.69
2024-02-17T08:11:10.034Z,98205.97
2024-02-17T08:13:36.656Z,98219.34
2024-02-17T08:16:03.270Z,98217.75
2024-02-17T08:18:30.020Z,98229.56
2024-02-17T08:20:56.754Z,98231.66
2024-02-17T08:23:23.350Z,98238.72
2024-02-17T08:25:49.937Z,98233.66
2024-02-17T08:28:16.539Z,98244.03
2024-02-17T08:30:43.162Z,98246.41
2024-02-17T08:33:09.910Z,98253.94
2024-02-17T08:35:36.722Z,98254.38
2024-02-17T08:38:03.361Z,98260.78
2024-02-17T08:40:30.042Z,98261.63
2024-02-17T08:42:56.694Z,98269.56
2024-02-17T08:45:23.418Z,98272.97
2024-02-17T08:47:50.074Z,98270.66
2024-02-17T08:50:16.706Z,98273.88
2024-02-17T08:52:43.347Z,98281.81
2024-02-17T08:55:09.938Z,98283.84
2024-02-17T08:57:36.596Z,98284.66
2024-02-17T09:00:03.262Z,98280.28
2024-02-17T09:02:29.916Z,98285.47
2024-02-17T09:04:56.744Z,98293.03
2024-02-17T09:07:23.528Z,98290.66
2024-02-17T09:09:50.237Z,98297.00
2024-02-17T09:12:16.948Z,98285.88
2024-02-17T09:14:43.644Z,98289.06
2024-02-17T09:17:10.258Z,98299.41
2024-02-17T09:19:36.950Z,98304.56
2024-02-17T09:22:03.887Z,98299.41
2024-02-17T09:24:30.605Z,98309.34
2024-02-17T09:26:57.255Z,98304.59
2024-02-17T09:29:23.938Z,98314.94
2024-02-17T09:31:50.621Z,98311.72
2024-02-17T09:34:17.593Z,98319.28
2024-02-17T09:36:44.528Z,98320.88
2024-02-17T09:39:11.367Z,98320.78
2024-02-17T09:41:37.956Z,98330.41
2024-02-17T09:44:04.573Z,98334.41
2024-02-17T09:46:31.200Z,98337.59
2024-02-17T09:48:57.922Z,98341.97
2024-02-17T09:51:24.620Z,98339.56
2024-02-17T09:53:51.213Z,98345.13
2024-02-17T09:56:17.810Z,98348.34
2024-02-17T09:58:44.450Z,98350.31
2024-02-17T10:01:11.395Z,98349.91
2024-02-17T10:03:38.115Z,98350.31
2024-02-17T10:06:04.809Z,98353.50
2024-02-17T10:08:31.475Z,98346.34
2024-02-17T10:10:58.072Z,98351.06
2024-02-17T10:13:24.797Z,98349.91
2024-02-17T10:15:51.532Z,98351.13
2024-02-17T10:18:20.255Z,98351.50
2024-02-17T10:20:48.924Z,98355.88
2024-02-17T10:23:15.550Z,98350.28
2024-02-17T10:25:42.158Z,98355.06
2024-02-17T10:28:08.785Z,98361.41
2024-02-17T10:30:35.453Z,98359.84
2024-02-17T10:33:02.220Z,98357.06
2024-02-17T10:35:28.943Z,98361.38
2024-02-17T10:37:55.631Z,98363.81
2024-02-17T10:40:22.404Z,98363.03
2024-02-17T10:42:49.118Z,98366.22
2024-02-17T10:45:15.954Z,98367.03
2024-02-17T10:47:42.805Z,98372.19
2024-02-17T10:50:11.798Z,98375.00
2024-02-17T10:52:39.422Z,98364.59
2024-02-17T10:55:06.204Z,98381.78
2024-02-17T10:57:32.913Z,98376.56
2024-02-17T10:59:59.434Z,98378.16
2024-02-17T11:02:26.008Z,98368.59
2024-02-17T11:04:52.580Z,98375.72
2024-02-17T11:07:19.214Z,98376.50
2024-02-17T11:09:45.872Z,98374.56
2024-02-17T11:12:12.503Z,98374.59
2024-02-17T11:14:39.029Z,98378.16
2024-02-17T11:17:05.605Z,98380.97
2024-02-17T11:19:38.961Z,98373.38
2024-02-17T11:22:09.489Z,98374.19
2024-02-17T11:24:36.109Z,98371.03
2024-02-17T11:27:02.652Z,98367.38
2024-02-17T11:29:29.357Z,98361.00
2024-02-17T11:31:55.900Z,98363.06
2024-02-17T11:34:22.608Z,98361.06
2024-02-17T11:36:49.290Z,98357.47
2024-02-17T11:39:15.928Z,98361.44
2024-02-17T11:41:42.588Z,98359.41
2024-02-17T11:44:09.082Z,98359.00
2024-02-17T11:46:35.491Z,98354.44
2024-02-17T11:49:02.148Z,98356.47
2024-02-17T11:51:30.208Z,98356.06
2024-02-17T11:53:57.280Z,98352.06
2024-02-17T11:56:24.107Z,98350.44
2024-02-17T11:58:50.738Z,98347.09
2024-02-17T12:01:17.516Z,98348.84
2024-02-17T12:03:44.348Z,98352.34
2024-02-17T12:06:11.213Z,98343.53
2024-02-17T12:08:37.874Z,98338.16
2024-02-17T12:11:04.509Z,98337.59
2024-02-17T12:13:31.112Z,98332.81
2024-02-17T12:15:57.807Z,98333.66
2024-02-17T12:18:24.587Z,98328.44
2024-02-17T12:20:52.008Z,98328.72
2024-02-17T12:23:18.869Z,98332.63
2024-02-17T12:25:45.482Z,98332.00
2024-02-17T12:28:12.070Z,98332.34
2024-02-17T12:30:38.798Z,98331.38
2024-02-17T12:33:05.537Z,98326.69
2024-02-17T12:35:32.412Z,98339.69
2024-02-17T12:37:59.096Z,98339.63
2024-02-17T12:40:25.825Z,98329.78
2024-02-17T12:42:52.720Z,98328.31
2024-02-17T12:45:19.444Z,98314.72
2024-02-17T12:47:46.211Z,98322.06
2024-02-17T12:50:12.967Z,98328.22
2024-02-17T12:52:39.568Z,98319.88
2024-02-17T12:55:06.211Z,98315.47
2024-02-17T12:57:32.866Z,98323.88
2024-02-17T12:59:59.511Z,98330.09
2024-02-17T13:02:26.116Z,98323.78
2024-02-17T13:04:52.815Z,98327.31
2024-02-17T13:07:19.516Z,98329.31
2024-02-17T13:09:46.192Z,98318.97
2024-02-17T13:12:12.922Z,98319.78
2024-02-17T13:14:39.621Z,98320.94
2024-02-17T13:17:06.262Z,98322.47
2024-02-17T13:19:32.953Z,98324.38
2024-02-17T13:21:59.659Z,98319.63
2024-02-17T13:24:26.389Z,98321.72
2024-02-17T13:26:53.037Z,98321.34
2024-02-17T13:29:19.634Z,98315.13
2024-02-17T13:31:46.228Z,98325.28
2024-02-17T13:34:12.967Z,98318.41
2024-02-17T13:36:39.676Z,98328.59
2024-02-17T13:39:06.321Z,98320.66
2024-02-17T13:41:33.014Z,98319.41
2024-02-17T13:43:59.634Z,98321.78
2024-02-17T13:46:26.211Z,98318.06
2024-02-17T13:48:52.944Z,98319.50
2024-02-17T13:51:19.647Z,98323.13
2024-02-17T13:53:46.291Z,98329.81
2024-02-17T13:56:13.024Z,98335.13
2024-02-17T13:58:39.678Z,98327.56
2024-02-17T14:01:07.821Z,98332.66
2024-02-17T14:03:34.977Z,98341.13
2024-02-17T14:06:01.776Z,98345.94
2024-02-17T14:08:29.470Z,98342.41
2024-02-17T14:10:56.161Z,98345.38
2024-02-17T14:13:22.836Z,98342.53
2024-02-17T14:15:49.455Z,98350.91
2024-02-17T14:18:16.232Z,98346.16
2024-02-17T14:20:42.889Z,98351.66
2024-02-17T14:23:09.485Z,98344.03
2024-02-17T14:25:36.187Z,98334.81
2024-02-17T14:28:02.857Z,98329.84
2024-02-17T14:30:29.534Z,98337.72
2024-02-17T14:32:56.283Z,98339.66
2024-02-17T14:35:22.898Z,98330.50
2024-02-17T14:37:49.651Z,98339.75
2024-02-17T14:40:16.342Z,98346.16
2024-02-17T14:42:46.282Z,98341.00
2024-02-17T14:45:13.482Z,98337.94
2024-02-17T14:47:40.346Z,98345.56
2024-02-17T14:50:07.133Z,98346.19
2024-02-17T14:52:33.785Z,98336.66
2024-02-17T14:55:00.404Z,98338.22
2024-02-17T14:57:26.890Z,98341.19
2024-02-17T14:59:53.325Z,98345.63
2024-02-17T15:02:19.753Z,98345.19
2024-02-17T15:04:46.248Z,98347.81
2024-02-17T15:07:12.867Z,98350.31
2024-02-17T15:09:39.418Z,98358.25
2024-02-17T15:12:05.899Z,98365.19
2024-02-17T15:14:32.438Z,98360.50
2024-02-17T15:16:58.885Z,98360.69
2024-02-17T15:19:26.495Z,98363.03
2024-02-17T15:21:53.124Z,98365.31
2024-02-17T15:24:19.786Z,98368.22
2024-02-17T15:26:46.316Z,98371.06
2024-02-17T15:29:12.781Z,98368.84
2024-02-17T15:31:39.560Z,98374.50
2024-02-17T15:34:06.153Z,98376.69
2024-02-17T15:36:32.734Z,98368.44
2024-02-17T15:38:59.274Z,98370.34
2024-02-17T15:41:25.712Z,98367.50
2024-02-17T15:43:52.124Z,98365.94
2024-02-17T15:46:18.541Z,98371.69
2024-02-17T15:48:45.143Z,98371.06
2024-02-17T15:51:12.114Z,98374.22
2024-02-17T15:53:38.657Z,98382.16
2024-02-17T15:56:05.280Z,98387.63
2024-02-17T15:58:31.888Z,98390.03
2024-02-17T16:00:58.927Z,98392.47
2024-02-17T16:03:29.059Z,98399.66
2024-02-17T16:05:57.354Z,98391.91
2024-02-17T16:08:23.999Z,98391.13
2024-02-17T16:10:50.728Z,98398.81
2024-02-17T16:13:17.350Z,98397.56
2024-02-17T16:15:43.988Z,98397.41
2024-02-17T16:18:10.698Z,98400.22
2024-02-17T16:20:37.329Z,98399.03
2024-02-17T16:23:04.048Z,98395.03
2024-02-17T16:25:30.670Z,98399.66
2024-02-17T16:27:57.379Z,98400.91
2024-02-17T16:30:23.954Z,98405.81
2024-02-17T16:32:50.575Z,98406.16
2024-02-17T16:35:17.113Z,98405.78
2024-02-17T16:37:43.623Z,98407.88
2024-02-17T16:40:10.058Z,98411.47
2024-02-17T16:42:36.540Z,98407.09
2024-02-17T16:45:02.994Z,98409.16
2024-02-17T16:47:29.473Z,98409.16
2024-02-17T16:49:56.360Z,98407.09
2024-02-17T16:52:22.852Z,98406.72
2024-02-17T16:54:49.347Z,98400.41
2024-02-17T16:57:15.832Z,98402.34
2024-02-17T16:59:42.291Z,98406.78
2024-02-17T17:02:08.818Z,98407.53
2024-02-17T17:04:35.836Z,98401.94
2024-02-17T17:07:02.701Z,98411.09
2024-02-17T17:09:29.319Z,98415.47
2024-02-17T17:11:55.842Z,98418.25
2024-02-17T17:14:22.277Z,98420.72
2024-02-17T17:16:48.754Z,98416.25
2024-02-17T17:19:15.247Z,98419.56
2024-02-17T17:21:41.805Z,98424.28
2024-02-17T17:24:08.322Z,98415.13
2024-02-17T17:26:43.540Z,98411.59
2024-02-17T17:29:16.771Z,98418.38
2024-02-17T17:31:43.400Z,98416.31
2024-02-17T17:34:10.104Z,98419.59
2024-02-17T17:36:36.838Z,98430.72
2024-02-17T17:39:03.441Z,98438.66
2024-02-17T17:41:30.175Z,98426.72
2024-02-17T17:43:56.810Z,98433.50
2024-02-17T17:46:23.398Z,98436.28
2024-02-17T17:48:50.150Z,98437.88
2024-02-17T17:51:16.928Z,98442.22
2024-02-17T17:53:43.640Z,98436.66
2024-02-17T17:56:10.295Z,98437.47
2024-02-17T17:58:36.971Z,98441.06
2024-02-17T18:01:03.632Z,98440.28
2024-02-17T18:03:30.357Z,98440.25
2024-02-17T18:05:57.335Z,98442.25
2024-02-17T18:08:23.911Z,98443.81
2024-02-17T18:10:50.580Z,98446.22
2024-02-17T18:13:17.243Z,98460.09
2024-02-17T18:15:43.953Z,98462.06
2024-02-17T18:18:10.711Z,98458.47
2024-02-17T18:20:37.420Z,98457.72
2024-02-17T18:23:04.013Z,98468.06
2024-02-17T18:25:33.340Z,98467.25
2024-02-17T18:28:00.095Z,98466.44
2024-02-17T18:30:26.770Z,98468.09
2024-02-17T18:32:53.440Z,98463.25
2024-02-17T18:35:20.042Z,98468.78
2024-02-17T18:37:46.890Z,98476.38
2024-02-17T18:40:13.538Z,98473.22
2024-02-17T18:42:40.209Z,98474.78
2024-02-17T18:45:06.791Z,98480.72
2024-02-17T18:47:33.443Z,98474.34
2024-02-17T18:50:00.254Z,98468.41
2024-02-17T18:52:26.918Z,98473.06
2024-02-17T18:54:53.594Z,98468.34
2024-02-17T18:57:20.250Z,98466.97
2024-02-17T18:59:47.008Z,98465.56
2024-02-17T19:02:13.642Z,98475.13
2024-02-17T19:04:40.328Z,98480.66
2024-02-17T19:07:07.172Z,98489.41
2024-02-17T19:09:33.863Z,98488.59
2024-02-17T19:12:00.534Z,98482.16
2024-02-17T19:14:27.192Z,98484.47
2024-02-17T19:16:53.778Z,98496.47
2024-02-17T19:19:20.425Z,98500.81
2024-02-17T19:21:47.101Z,98493.13
2024-02-17T19:24:13.700Z,98494.56
2024-02-17T19:26:40.322Z,98498.03
2024-02-17T19:29:06.967Z,98487.75
2024-02-17T19:31:33.579Z,98489.38
2024-02-17T19:34:00.345Z,98481.31
2024-02-17T19:36:27.172Z,98495.31
2024-02-17T19:38:53.788Z,98500.97
2024-02-17T19:41:20.376Z,98497.84
2024-02-17T19:43:49.178Z,98506.19
2024-02-17T19:46:16.380Z,98508.66
2024-02-17T19:48:43.117Z,98512.19
2024-02-17T19:51:09.828Z,98514.19
2024-02-17T19:53:36.414Z,98518.19
2024-02-17T19:56:03.019Z,98519.84
2024-02-17T19:58:29.637Z,98512.31
2024-02-17T20:00:56.334Z,98517.53
2024-02-17T20:03:23.086Z,98523.50
2024-02-17T20:05:49.816Z,98527.88
2024-02-17T20:08:16.416Z,98527.88
2024-02-17T20:10:42.986Z,98528.69
2024-02-17T20:13:09.596Z,98524.28
2024-02-17T20:15:36.205Z,98535.84
2024-02-17T20:18:02.861Z,98545.34
2024-02-17T20:20:29.636Z,98540.22
2024-02-17T20:22:56.259Z,98543.00
2024-02-17T20:25:22.854Z,98543.38
2024-02-17T20:27:49.564Z,98545.00
2024-02-17T20:30:16.472Z,98552.97
2024-02-17T20:32:43.228Z,98553.00
2024-02-17T20:35:10.049Z,98554.97
2024-02-17T20:37:36.723Z,98559.72
2024-02-17T20:40:03.357Z,98558.56
2024-02-17T20:42:30.067Z,98557.34
2024-02-17T20:44:56.679Z,98569.28
2024-02-17T20:47:23.355Z,98572.91
2024-02-17T20:49:50.220Z,98574.91
2024-02-17T20:52:17.027Z,98570.13
2024-02-17T20:54:43.731Z,98564.53
2024-02-17T20:57:10.410Z,98558.97
2024-02-17T20:59:36.831Z,98562.88
2024-02-17T21:02:03.344Z,98574.88
2024-02-17T21:04:29.874Z,98578.88
2024-02-17T21:06:56.388Z,98571.28
2024-02-17T21:09:22.872Z,98569.31
2024-02-17T21:11:49.352Z,98565.31
2024-02-17T21:14:15.777Z,98564.94
2024-02-17T21:16:42.225Z,98567.72
2024-02-17T21:19:08.792Z,98558.97
2024-02-17T21:21:35.503Z,98553.41
2024-02-17T21:24:02.044Z,98547.00
2024-02-17T21:26:28.475Z,98549.72
2024-02-17T21:28:54.925Z,98554.09
2024-02-17T21:31:24.944Z,98565.22
2024-02-17T21:33:51.821Z,98563.66
2024-02-17T21:36:18.382Z,98561.28
2024-02-17T21:38:44.844Z,98567.31
2024-02-17T21:41:11.268Z,98567.59
2024-02-17T21:43:37.736Z,98570.91
2024-02-17T21:46:04.177Z,98566.06
2024-02-17T21:48:30.814Z,98566.81
2024-02-17T21:50:57.505Z,98563.66
2024-02-17T21:53:23.962Z,98564.09
2024-02-17T21:55:50.447Z,98566.94
2024-02-17T21:58:17.033Z,98580.47
2024-02-17T22:00:43.714Z,98580.44
2024-02-17T22:03:10.432Z,98583.25
2024-02-17T22:05:39.224Z,98579.28
2024-02-17T22:08:05.810Z,98581.28
2024-02-17T22:10:32.405Z,98569.72
2024-02-17T22:12:59.153Z,98569.97
2024-02-17T22:15:25.891Z,98561.31
2024-02-17T22:17:52.543Z,98568.38
2024-02-17T22:20:19.302Z,98567.31
2024-02-17T22:22:45.902Z,98568.81
2024-02-17T22:25:12.514Z,98564.06
2024-02-17T22:27:39.192Z,98572.78
2024-02-17T22:30:05.858Z,98573.28
2024-02-17T22:32:32.521Z,98567.31
2024-02-17T22:34:59.217Z,98571.72
2024-02-17T22:37:25.830Z,98579.66
2024-02-17T22:39:52.447Z,98585.22
2024-02-17T22:42:19.080Z,98578.88
2024-02-17T22:44:47.645Z,98589.22
2024-02-17T22:47:15.986Z,98589.22
2024-02-17T22:49:42.755Z,98593.91
2024-02-17T22:52:09.409Z,98586.81
2024-02-17T22:54:36.124Z,98583.25
2024-02-17T22:57:02.772Z,98591.22
2024-02-17T22:59:29.412Z,98587.25
2024-02-17T23:01:56.025Z,98592.81
2024-02-17T23:04:22.783Z,98606.75
2024-02-17T23:06:49.706Z,98594.41
2024-02-17T23:09:16.560Z,98594.81
2024-02-17T23:11:43.295Z,98585.63
2024-02-17T23:14:09.984Z,98599.59
2024-02-17T23:16:36.581Z,98605.94
2024-02-17T23:19:03.495Z,98601.56
2024-02-17T23:21:32.040Z,98601.19
2024-02-17T23:24:01.952Z,98603.16
2024-02-17T23:26:28.647Z,98609.13
2024-02-17T23:28:55.227Z,98599.94
2024-02-17T23:31:21.857Z,98604.75
2024-02-17T23:33:48.632Z,98601.19
2024-02-17T23:36:15.325Z,98604.34
2024-02-17T23:38:41.929Z,98604.72
2024-02-17T23:41:08.517Z,98604.34
2024-02-17T23:43:35.169Z,98607.94
2024-02-17T23:46:02.189Z,98603.16
2024-02-17T23:48:29.091Z,98603.56
2024-02-17T23:50:55.780Z,98611.44
2024-02-17T23:53:22.417Z,98611.88
2024-02-17T23:55:49.046Z,98602.72
2024-02-17T23:58:15.664Z,98599.53
